sensor_id;sensor_type;location;lat;lon;timestamp;pressure;altitude;pressure_sealevel;temperature;humidity
14117;BME280;7137;51.436;6.544;2023-05-03T00:01:13;102411.19;;;6.70;86.03
14117;BME280;7137;51.436;6.544;2023-05-03T00:04:15;102413.78;;;6.70;85.60
14117;BME280;7137;51.436;6.544;2023-05-03T00:07:17;102415.63;;;6.79;85.54
14117;BME280;7137;51.436;6.544;2023-05-03T00:10:20;102412.19;;;6.81;85.59
14117;BME280;7137;51.436;6.544;2023-05-03T00:13:22;102421.84;;;6.92;84.13
14117;BME280;7137;51.436;6.544;2023-05-03T00:16:23;102417.25;;;6.69;84.46
14117;BME280;7137;51.436;6.544;2023-05-03T00:19:25;102419.25;;;6.92;84.20
14117;BME280;7137;51.436;6.544;2023-05-03T00:22:29;102421.59;;;6.73;84.48
14117;BME280;7137;51.436;6.544;2023-05-03T00:25:32;102416.53;;;6.82;84.24
14117;BME280;7137;51.436;6.544;2023-05-03T00:28:34;102417.50;;;6.91;83.08
14117;BME280;7137;51.436;6.544;2023-05-03T00:31:35;102423.50;;;6.87;84.63
14117;BME280;7137;51.436;6.544;2023-05-03T00:34:36;102417.50;;;6.91;83.02
14117;BME280;7137;51.436;6.544;2023-05-03T00:37:38;102417.41;;;6.84;83.86
14117;BME280;7137;51.436;6.544;2023-05-03T00:40:41;102413.78;;;6.69;84.26
14117;BME280;7137;51.436;6.544;2023-05-03T00:43:43;102422.47;;;6.72;84.39
14117;BME280;7137;51.436;6.544;2023-05-03T00:46:44;102412.84;;;6.64;84.40
14117;BME280;7137;51.436;6.544;2023-05-03T00:49:46;102422.25;;;6.54;85.46
14117;BME280;7137;51.436;6.544;2023-05-03T00:52:47;102416.09;;;6.47;84.61
14117;BME280;7137;51.436;6.544;2023-05-03T00:55:51;102409.09;;;6.40;85.63
14117;BME280;7137;51.436;6.544;2023-05-03T00:58:53;102416.00;;;6.40;85.64
14117;BME280;7137;51.436;6.544;2023-05-03T01:01:54;102412.59;;;6.45;85.26
14117;BME280;7137;51.436;6.544;2023-05-03T01:04:56;102414.31;;;6.43;85.57
14117;BME280;7137;51.436;6.544;2023-05-03T01:08:02;102407.50;;;6.50;85.38
14117;BME280;7137;51.436;6.544;2023-05-03T01:11:12;102409.25;;;6.51;84.86
14117;BME280;7137;51.436;6.544;2023-05-03T01:14:22;102404.63;;;6.30;85.59
14117;BME280;7137;51.436;6.544;2023-05-03T01:17:27;102421.91;;;6.30;86.21
14117;BME280;7137;51.436;6.544;2023-05-03T01:20:33;102409.78;;;6.29;85.20
14117;BME280;7137;51.436;6.544;2023-05-03T01:23:40;102413.22;;;6.26;85.63
14117;BME280;7137;51.436;6.544;2023-05-03T01:26:44;102415.69;;;6.18;86.50
14117;BME280;7137;51.436;6.544;2023-05-03T01:29:45;102424.16;;;6.05;87.68
14117;BME280;7137;51.436;6.544;2023-05-03T01:32:52;102425.00;;;6.04;87.39
14117;BME280;7137;51.436;6.544;2023-05-03T01:35:59;102426.75;;;6.05;87.06
14117;BME280;7137;51.436;6.544;2023-05-03T01:39:06;102422.56;;;6.13;86.71
14117;BME280;7137;51.436;6.544;2023-05-03T01:42:12;102423.59;;;6.26;86.50
14117;BME280;7137;51.436;6.544;2023-05-03T01:45:15;102423.53;;;6.21;85.94
14117;BME280;7137;51.436;6.544;2023-05-03T01:48:17;102431.19;;;6.12;86.90
14117;BME280;7137;51.436;6.544;2023-05-03T01:51:19;102424.25;;;6.11;87.25
14117;BME280;7137;51.436;6.544;2023-05-03T01:54:20;102428.41;;;6.00;88.02
14117;BME280;7137;51.436;6.544;2023-05-03T01:57:24;102434.59;;;6.08;87.04
14117;BME280;7137;51.436;6.544;2023-05-03T02:00:26;102441.41;;;6.03;87.13
14117;BME280;7137;51.436;6.544;2023-05-03T02:03:27;102439.69;;;6.02;87.28
14117;BME280;7137;51.436;6.544;2023-05-03T02:06:29;102445.59;;;5.92;87.72
14117;BME280;7137;51.436;6.544;2023-05-03T02:09:30;102442.19;;;5.96;87.87
14117;BME280;7137;51.436;6.544;2023-05-03T02:12:33;102452.28;;;5.81;88.86
14117;BME280;7137;51.436;6.544;2023-05-03T02:15:35;102454.06;;;5.85;88.45
14117;BME280;7137;51.436;6.544;2023-05-03T02:18:36;102458.94;;;5.65;89.84
14117;BME280;7137;51.436;6.544;2023-05-03T02:21:38;102452.16;;;5.73;89.31
14117;BME280;7137;51.436;6.544;2023-05-03T02:24:39;102454.59;;;5.64;89.75
14117;BME280;7137;51.436;6.544;2023-05-03T02:27:43;102459.91;;;5.72;89.56
14117;BME280;7137;51.436;6.544;2023-05-03T02:30:45;102449.66;;;5.79;88.73
14117;BME280;7137;51.436;6.544;2023-05-03T02:33:46;102455.72;;;5.78;88.78
14117;BME280;7137;51.436;6.544;2023-05-03T02:36:49;102461.59;;;5.70;89.52
14117;BME280;7137;51.436;6.544;2023-05-03T02:39:50;102456.59;;;5.80;89.25
14117;BME280;7137;51.436;6.544;2023-05-03T02:42:53;102458.13;;;5.68;89.55
14117;BME280;7137;51.436;6.544;2023-05-03T02:45:54;102458.13;;;5.69;89.61
14117;BME280;7137;51.436;6.544;2023-05-03T02:48:56;102459.84;;;5.67;89.73
14117;BME280;7137;51.436;6.544;2023-05-03T02:51:57;102458.06;;;5.64;89.71
14117;BME280;7137;51.436;6.544;2023-05-03T02:54:59;102463.94;;;5.56;90.03
14117;BME280;7137;51.436;6.544;2023-05-03T02:58:01;102457.06;;;5.56;90.20
14117;BME280;7137;51.436;6.544;2023-05-03T03:01:03;102454.59;;;5.64;89.97
14117;BME280;7137;51.436;6.544;2023-05-03T03:04:05;102442.44;;;5.61;89.53
14117;BME280;7137;51.436;6.544;2023-05-03T03:07:06;102439.78;;;5.57;89.71
14117;BME280;7137;51.436;6.544;2023-05-03T03:10:09;102437.66;;;5.34;91.20
14117;BME280;7137;51.436;6.544;2023-05-03T03:13:12;102425.38;;;5.23;91.33
14117;BME280;7137;51.436;6.544;2023-05-03T03:16:13;102432.31;;;5.25;91.86
14117;BME280;7137;51.436;6.544;2023-05-03T03:19:15;102428.03;;;5.27;91.93
14117;BME280;7137;51.436;6.544;2023-05-03T03:22:16;102421.09;;;5.26;92.08
14117;BME280;7137;51.436;6.544;2023-05-03T03:25:19;102416.56;;;5.13;92.23
14117;BME280;7137;51.436;6.544;2023-05-03T03:28:22;102410.34;;;5.05;93.27
14117;BME280;7137;51.436;6.544;2023-05-03T03:31:24;102412.78;;;4.96;93.93
14117;BME280;7137;51.436;6.544;2023-05-03T03:34:25;102412.59;;;4.87;93.67
14117;BME280;7137;51.436;6.544;2023-05-03T03:37:27;102413.34;;;4.81;94.52
14117;BME280;7137;51.436;6.544;2023-05-03T03:40:29;102406.47;;;4.82;94.94
14117;BME280;7137;51.436;6.544;2023-05-03T03:43:31;102402.00;;;4.76;95.32
14117;BME280;7137;51.436;6.544;2023-05-03T03:46:33;102399.53;;;4.81;95.20
14117;BME280;7137;51.436;6.544;2023-05-03T03:49:35;102391.53;;;4.68;95.63
14117;BME280;7137;51.436;6.544;2023-05-03T03:52:36;102387.34;;;4.76;95.08
14117;BME280;7137;51.436;6.544;2023-05-03T03:55:38;102385.53;;;4.71;95.56
14117;BME280;7137;51.436;6.544;2023-05-03T03:58:41;102380.47;;;4.77;96.06
14117;BME280;7137;51.436;6.544;2023-05-03T04:01:42;102381.81;;;5.02;94.49
14117;BME280;7137;51.436;6.544;2023-05-03T04:04:44;102390.34;;;4.96;93.86
14117;BME280;7137;51.436;6.544;2023-05-03T04:07:45;102403.28;;;4.96;93.83
14117;BME280;7137;51.436;6.544;2023-05-03T04:10:48;102411.94;;;4.97;94.46
14117;BME280;7137;51.436;6.544;2023-05-03T04:13:51;102408.78;;;5.13;93.01
14117;BME280;7137;51.436;6.544;2023-05-03T04:16:52;102411.19;;;5.04;92.72
14117;BME280;7137;51.436;6.544;2023-05-03T04:19:54;102416.50;;;5.10;93.14
14117;BME280;7137;51.436;6.544;2023-05-03T04:22:56;102419.16;;;5.15;93.04
14117;BME280;7137;51.436;6.544;2023-05-03T04:25:57;102425.34;;;5.21;92.10
14117;BME280;7137;51.436;6.544;2023-05-03T04:29:00;102434.16;;;5.32;91.42
14117;BME280;7137;51.436;6.544;2023-05-03T04:32:03;102429.59;;;5.19;91.59
14117;BME280;7137;51.436;6.544;2023-05-03T04:35:07;102427.09;;;5.22;91.98
14117;BME280;7137;51.436;6.544;2023-05-03T04:38:09;102427.22;;;5.30;91.66
14117;BME280;7137;51.436;6.544;2023-05-03T04:41:11;102432.38;;;5.30;91.35
14117;BME280;7137;51.436;6.544;2023-05-03T04:44:14;102424.75;;;5.36;91.39
14117;BME280;7137;51.436;6.544;2023-05-03T04:47:16;102427.38;;;5.38;91.52
14117;BME280;7137;51.436;6.544;2023-05-03T04:50:18;102428.94;;;5.31;91.89
14117;BME280;7137;51.436;6.544;2023-05-03T04:53:20;102425.47;;;5.29;91.92
14117;BME280;7137;51.436;6.544;2023-05-03T04:56:21;102429.94;;;5.38;92.07
14117;BME280;7137;51.436;6.544;2023-05-03T04:59:26;102432.56;;;5.39;92.14
14117;BME280;7137;51.436;6.544;2023-05-03T05:02:28;102431.97;;;5.55;91.66
14117;BME280;7137;51.436;6.544;2023-05-03T05:05:29;102436.28;;;5.55;91.44
14117;BME280;7137;51.436;6.544;2023-05-03T05:08:32;102441.53;;;5.58;91.42
14117;BME280;7137;51.436;6.544;2023-05-03T05:11:33;102451.88;;;5.58;91.55
14117;BME280;7137;51.436;6.544;2023-05-03T05:14:36;102450.34;;;5.68;91.16
14117;BME280;7137;51.436;6.544;2023-05-03T05:17:37;102457.47;;;5.81;90.69
14117;BME280;7137;51.436;6.544;2023-05-03T05:20:39;102459.38;;;5.91;90.27
14117;BME280;7137;51.436;6.544;2023-05-03T05:23:41;102464.84;;;6.06;90.56
14117;BME280;7137;51.436;6.544;2023-05-03T05:26:42;102469.94;;;6.03;89.38
14117;BME280;7137;51.436;6.544;2023-05-03T05:29:45;102466.81;;;6.22;90.27
14117;BME280;7137;51.436;6.544;2023-05-03T05:32:47;102474.47;;;6.16;89.75
14117;BME280;7137;51.436;6.544;2023-05-03T05:35:48;102471.94;;;6.19;89.82
14117;BME280;7137;51.436;6.544;2023-05-03T05:38:50;102470.50;;;6.40;89.33
14117;BME280;7137;51.436;6.544;2023-05-03T05:41:51;102475.00;;;6.51;88.48
14117;BME280;7137;51.436;6.544;2023-05-03T05:44:54;102465.72;;;6.70;86.87
14117;BME280;7137;51.436;6.544;2023-05-03T05:47:56;102470.22;;;6.83;86.19
14117;BME280;7137;51.436;6.544;2023-05-03T05:50:58;102471.41;;;7.11;85.22
14117;BME280;7137;51.436;6.544;2023-05-03T05:53:59;102468.66;;;7.84;83.49
14117;BME280;7137;51.436;6.544;2023-05-03T05:57:01;102481.69;;;10.37;73.88
14117;BME280;7137;51.436;6.544;2023-05-03T06:00:05;102488.22;;;11.43;66.01
14117;BME280;7137;51.436;6.544;2023-05-03T06:03:13;102495.69;;;13.50;57.75
14117;BME280;7137;51.436;6.544;2023-05-03T06:06:15;102501.78;;;14.08;57.03
14117;BME280;7137;51.436;6.544;2023-05-03T06:09:16;102504.94;;;15.93;51.19
14117;BME280;7137;51.436;6.544;2023-05-03T06:12:18;102502.06;;;15.28;50.92
14117;BME280;7137;51.436;6.544;2023-05-03T06:15:21;102503.94;;;16.31;45.38
14117;BME280;7137;51.436;6.544;2023-05-03T06:18:23;102494.53;;;14.20;52.49
14117;BME280;7137;51.436;6.544;2023-05-03T06:21:24;102504.00;;;15.19;50.17
14117;BME280;7137;51.436;6.544;2023-05-03T06:24:26;102506.50;;;17.28;46.19
14117;BME280;7137;51.436;6.544;2023-05-03T06:27:30;102508.41;;;15.95;49.04
14117;BME280;7137;51.436;6.544;2023-05-03T06:30:33;102501.28;;;18.83;40.80
14117;BME280;7137;51.436;6.544;2023-05-03T06:33:34;102509.22;;;19.52;40.40
14117;BME280;7137;51.436;6.544;2023-05-03T06:36:36;102515.53;;;16.91;43.04
14117;BME280;7137;51.436;6.544;2023-05-03T06:39:37;102511.03;;;17.24;44.31
14117;BME280;7137;51.436;6.544;2023-05-03T06:42:39;102505.63;;;18.61;40.52
14117;BME280;7137;51.436;6.544;2023-05-03T06:45:42;102505.84;;;18.80;38.61
14117;BME280;7137;51.436;6.544;2023-05-03T06:48:44;102503.75;;;17.88;42.24
14117;BME280;7137;51.436;6.544;2023-05-03T06:51:45;102507.03;;;18.94;38.83
14117;BME280;7137;51.436;6.544;2023-05-03T06:54:47;102506.78;;;19.69;38.35
14117;BME280;7137;51.436;6.544;2023-05-03T06:57:48;102507.41;;;20.59;36.50
14117;BME280;7137;51.436;6.544;2023-05-03T07:00:53;102509.75;;;22.81;33.12
14117;BME280;7137;51.436;6.544;2023-05-03T07:03:54;102518.72;;;21.94;33.82
14117;BME280;7137;51.436;6.544;2023-05-03T07:06:56;102512.63;;;21.18;33.24
14117;BME280;7137;51.436;6.544;2023-05-03T07:09:57;102500.31;;;18.11;39.87
14117;BME280;7137;51.436;6.544;2023-05-03T07:12:59;102497.94;;;19.47;38.66
14117;BME280;7137;51.436;6.544;2023-05-03T07:16:02;102488.91;;;20.57;36.59
14117;BME280;7137;51.436;6.544;2023-05-03T07:19:04;102485.50;;;21.12;34.09
14117;BME280;7137;51.436;6.544;2023-05-03T07:22:05;102483.03;;;20.88;33.94
14117;BME280;7137;51.436;6.544;2023-05-03T07:25:07;102476.50;;;19.31;36.88
14117;BME280;7137;51.436;6.544;2023-05-03T07:28:11;102466.13;;;19.47;38.44
14117;BME280;7137;51.436;6.544;2023-05-03T07:31:14;102474.31;;;20.66;35.65
14117;BME280;7137;51.436;6.544;2023-05-03T07:34:15;102476.97;;;22.79;31.98
14117;BME280;7137;51.436;6.544;2023-05-03T07:37:17;102475.06;;;25.07;28.79
14117;BME280;7137;51.436;6.544;2023-05-03T07:40:18;102475.44;;;24.58;29.39
14117;BME280;7137;51.436;6.544;2023-05-03T07:43:20;102474.59;;;20.99;33.53
14117;BME280;7137;51.436;6.544;2023-05-03T07:46:24;102473.63;;;21.74;32.94
14117;BME280;7137;51.436;6.544;2023-05-03T07:49:25;102460.16;;;21.59;33.21
14117;BME280;7137;51.436;6.544;2023-05-03T07:52:27;102465.22;;;21.64;31.67
14117;BME280;7137;51.436;6.544;2023-05-03T07:55:28;102463.84;;;21.74;31.29
14117;BME280;7137;51.436;6.544;2023-05-03T07:58:32;102455.41;;;22.01;31.04
14117;BME280;7137;51.436;6.544;2023-05-03T08:01:35;102457.00;;;24.25;27.88
14117;BME280;7137;51.436;6.544;2023-05-03T08:04:36;102457.31;;;26.13;26.46
14117;BME280;7137;51.436;6.544;2023-05-03T08:07:38;102462.75;;;27.24;23.62
14117;BME280;7137;51.436;6.544;2023-05-03T08:10:40;102455.94;;;26.58;24.16
14117;BME280;7137;51.436;6.544;2023-05-03T08:13:42;102466.22;;;28.98;22.71
14117;BME280;7137;51.436;6.544;2023-05-03T08:16:45;102460.31;;;28.04;23.13
14117;BME280;7137;51.436;6.544;2023-05-03T08:19:47;102452.31;;;26.96;24.28
14117;BME280;7137;51.436;6.544;2023-05-03T08:22:48;102453.00;;;25.58;25.34
14117;BME280;7137;51.436;6.544;2023-05-03T08:25:50;102438.50;;;21.84;28.96
14117;BME280;7137;51.436;6.544;2023-05-03T08:28:52;102445.47;;;21.87;28.67
14117;BME280;7137;51.436;6.544;2023-05-03T08:31:55;102455.19;;;26.43;24.37
14117;BME280;7137;51.436;6.544;2023-05-03T08:34:57;102443.84;;;28.20;23.11
14117;BME280;7137;51.436;6.544;2023-05-03T08:37:59;102444.94;;;28.17;23.28
14117;BME280;7137;51.436;6.544;2023-05-03T08:41:07;102439.63;;;24.75;25.96
14117;BME280;7137;51.436;6.544;2023-05-03T08:44:19;102434.78;;;24.82;26.09
14117;BME280;7137;51.436;6.544;2023-05-03T08:47:23;102433.38;;;25.84;25.43
14117;BME280;7137;51.436;6.544;2023-05-03T08:50:26;102432.31;;;25.60;25.00
14117;BME280;7137;51.436;6.544;2023-05-03T08:53:28;102431.09;;;22.90;28.70
14117;BME280;7137;51.436;6.544;2023-05-03T08:56:33;102423.31;;;23.79;28.02
14117;BME280;7137;51.436;6.544;2023-05-03T08:59:47;102415.25;;;25.08;26.30
14117;BME280;7137;51.436;6.544;2023-05-03T09:02:50;102416.28;;;27.59;23.74
14117;BME280;7137;51.436;6.544;2023-05-03T09:05:52;102414.97;;;26.92;23.57
14117;BME280;7137;51.436;6.544;2023-05-03T09:08:53;102415.78;;;22.94;28.24
14117;BME280;7137;51.436;6.544;2023-05-03T09:11:55;102414.28;;;22.72;28.63
14117;BME280;7137;51.436;6.544;2023-05-03T09:14:57;102398.56;;;23.91;27.76
14117;BME280;7137;51.436;6.544;2023-05-03T09:18:19;102413.81;;;25.03;26.72
14117;BME280;7137;51.436;6.544;2023-05-03T09:21:22;102414.00;;;22.12;31.56
14117;BME280;7137;51.436;6.544;2023-05-03T09:24:24;102418.19;;;21.30;32.90
14117;BME280;7137;51.436;6.544;2023-05-03T09:27:26;102417.34;;;23.89;27.83
14117;BME280;7137;51.436;6.544;2023-05-03T09:30:27;102409.44;;;23.88;26.54
14117;BME280;7137;51.436;6.544;2023-05-03T09:33:30;102408.63;;;23.72;27.97
14117;BME280;7137;51.436;6.544;2023-05-03T09:36:44;102397.88;;;20.91;31.21
14117;BME280;7137;51.436;6.544;2023-05-03T09:39:46;102395.53;;;22.42;29.33
14117;BME280;7137;51.436;6.544;2023-05-03T09:43:05;102398.31;;;24.24;27.43
14117;BME280;7137;51.436;6.544;2023-05-03T09:46:08;102400.25;;;24.65;27.77
14117;BME280;7137;51.436;6.544;2023-05-03T09:49:11;102381.59;;;22.86;28.96
14117;BME280;7137;51.436;6.544;2023-05-03T09:52:13;102383.84;;;22.45;30.21
14117;BME280;7137;51.436;6.544;2023-05-03T09:55:15;102374.69;;;21.31;31.19
14117;BME280;7137;51.436;6.544;2023-05-03T09:58:17;102379.06;;;19.16;35.11
14117;BME280;7137;51.436;6.544;2023-05-03T10:01:20;102384.16;;;20.82;32.75
14117;BME280;7137;51.436;6.544;2023-05-03T10:04:25;102373.84;;;21.65;30.98
14117;BME280;7137;51.436;6.544;2023-05-03T10:07:28;102374.72;;;21.83;31.24
14117;BME280;7137;51.436;6.544;2023-05-03T10:10:31;102365.34;;;21.22;31.60
14117;BME280;7137;51.436;6.544;2023-05-03T10:13:34;102377.50;;;18.42;36.68
14117;BME280;7137;51.436;6.544;2023-05-03T10:16:38;102376.09;;;18.08;37.32
14117;BME280;7137;51.436;6.544;2023-05-03T10:19:49;102368.94;;;20.85;34.85
14117;BME280;7137;51.436;6.544;2023-05-03T10:23:11;102383.69;;;21.98;32.90
14117;BME280;7137;51.436;6.544;2023-05-03T10:26:15;102374.09;;;21.26;32.88
14117;BME280;7137;51.436;6.544;2023-05-03T10:29:50;102366.13;;;19.30;34.57
14117;BME280;7137;51.436;6.544;2023-05-03T10:32:53;102369.38;;;16.94;37.90
14117;BME280;7137;51.436;6.544;2023-05-03T10:35:56;102362.94;;;17.82;37.75
14117;BME280;7137;51.436;6.544;2023-05-03T10:39:02;102371.44;;;16.84;38.81
14117;BME280;7137;51.436;6.544;2023-05-03T10:42:04;102365.44;;;17.60;37.67
14117;BME280;7137;51.436;6.544;2023-05-03T10:45:07;102365.59;;;16.73;39.24
14117;BME280;7137;51.436;6.544;2023-05-03T10:48:15;102349.72;;;16.76;39.93
14117;BME280;7137;51.436;6.544;2023-05-03T10:51:42;102344.91;;;15.98;40.48
14117;BME280;7137;51.436;6.544;2023-05-03T10:54:44;102352.13;;;15.92;41.44
14117;BME280;7137;51.436;6.544;2023-05-03T10:57:47;102348.00;;;16.13;41.89
14117;BME280;7137;51.436;6.544;2023-05-03T11:00:50;102345.72;;;16.61;42.97
14117;BME280;7137;51.436;6.544;2023-05-03T11:03:56;102341.59;;;16.52;38.07
14117;BME280;7137;51.436;6.544;2023-05-03T11:07:02;102340.94;;;17.02;40.28
14117;BME280;7137;51.436;6.544;2023-05-03T11:10:15;102325.41;;;16.04;41.58
14117;BME280;7137;51.436;6.544;2023-05-03T11:13:16;102330.22;;;16.50;40.88
14117;BME280;7137;51.436;6.544;2023-05-03T11:16:18;102329.06;;;15.67;41.81
14117;BME280;7137;51.436;6.544;2023-05-03T11:19:20;102317.63;;;15.99;40.67
14117;BME280;7137;51.436;6.544;2023-05-03T11:22:23;102314.44;;;16.49;40.25
14117;BME280;7137;51.436;6.544;2023-05-03T11:25:25;102312.19;;;17.20;41.33
14117;BME280;7137;51.436;6.544;2023-05-03T11:28:26;102315.81;;;17.43;38.01
14117;BME280;7137;51.436;6.544;2023-05-03T11:31:28;102315.44;;;17.01;40.10
14117;BME280;7137;51.436;6.544;2023-05-03T11:34:29;102312.81;;;17.01;38.81
14117;BME280;7137;51.436;6.544;2023-05-03T11:37:33;102315.16;;;17.36;39.82
14117;BME280;7137;51.436;6.544;2023-05-03T11:40:35;102300.75;;;17.45;37.65
14117;BME280;7137;51.436;6.544;2023-05-03T11:43:42;102303.44;;;17.18;38.57
14117;BME280;7137;51.436;6.544;2023-05-03T11:46:44;102313.97;;;17.45;38.54
14117;BME280;7137;51.436;6.544;2023-05-03T11:49:51;102319.97;;;16.97;40.12
14117;BME280;7137;51.436;6.544;2023-05-03T11:52:54;102303.88;;;17.31;38.80
14117;BME280;7137;51.436;6.544;2023-05-03T11:55:56;102302.38;;;17.24;38.71
14117;BME280;7137;51.436;6.544;2023-05-03T11:58:58;102298.91;;;16.96;40.15
14117;BME280;7137;51.436;6.544;2023-05-03T12:02:00;102301.78;;;17.14;40.84
14117;BME280;7137;51.436;6.544;2023-05-03T12:05:04;102298.63;;;17.30;38.72
14117;BME280;7137;51.436;6.544;2023-05-03T12:08:08;102297.84;;;17.52;38.07
14117;BME280;7137;51.436;6.544;2023-05-03T12:11:10;102298.22;;;16.89;38.65
14117;BME280;7137;51.436;6.544;2023-05-03T12:14:12;102299.97;;;16.62;39.96
14117;BME280;7137;51.436;6.544;2023-05-03T12:17:13;102291.44;;;16.82;40.62
14117;BME280;7137;51.436;6.544;2023-05-03T12:20:16;102285.47;;;17.03;38.45
14117;BME280;7137;51.436;6.544;2023-05-03T12:23:20;102285.00;;;16.62;39.69
14117;BME280;7137;51.436;6.544;2023-05-03T12:26:23;102284.13;;;16.32;38.56
14117;BME280;7137;51.436;6.544;2023-05-03T12:29:25;102276.25;;;16.01;42.25
14117;BME280;7137;51.436;6.544;2023-05-03T12:32:27;102278.53;;;16.14;40.08
14117;BME280;7137;51.436;6.544;2023-05-03T12:35:28;102270.13;;;16.58;41.70
14117;BME280;7137;51.436;6.544;2023-05-03T12:38:31;102260.09;;;16.71;39.40
14117;BME280;7137;51.436;6.544;2023-05-03T12:41:32;102259.53;;;16.60;39.69
14117;BME280;7137;51.436;6.544;2023-05-03T12:44:34;102260.44;;;16.31;40.35
14117;BME280;7137;51.436;6.544;2023-05-03T12:47:35;102245.69;;;16.53;41.95
14117;BME280;7137;51.436;6.544;2023-05-03T12:50:37;102259.09;;;16.47;41.24
14117;BME280;7137;51.436;6.544;2023-05-03T12:53:40;102244.78;;;16.54;40.39
14117;BME280;7137;51.436;6.544;2023-05-03T12:56:41;102232.38;;;16.56;41.63
14117;BME280;7137;51.436;6.544;2023-05-03T12:59:43;102237.63;;;16.30;40.21
14117;BME280;7137;51.436;6.544;2023-05-03T13:02:45;102226.56;;;16.19;42.00
14117;BME280;7137;51.436;6.544;2023-05-03T13:05:47;102220.38;;;16.48;41.88
14117;BME280;7137;51.436;6.544;2023-05-03T13:08:49;102221.66;;;16.62;40.88
14117;BME280;7137;51.436;6.544;2023-05-03T13:11:51;102212.38;;;16.23;40.80
14117;BME280;7137;51.436;6.544;2023-05-03T13:14:53;102204.84;;;16.39;40.04
14117;BME280;7137;51.436;6.544;2023-05-03T13:17:55;102199.34;;;16.45;40.22
14117;BME280;7137;51.436;6.544;2023-05-03T13:21:00;102185.41;;;16.41;41.36
14117;BME280;7137;51.436;6.544;2023-05-03T13:24:03;102180.50;;;16.29;39.56
14117;BME280;7137;51.436;6.544;2023-05-03T13:27:05;102192.28;;;15.89;42.44
14117;BME280;7137;51.436;6.544;2023-05-03T13:30:08;102172.38;;;16.09;41.91
14117;BME280;7137;51.436;6.544;2023-05-03T13:33:10;102177.94;;;16.27;41.43
14117;BME280;7137;51.436;6.544;2023-05-03T13:36:11;102165.72;;;16.25;40.17
14117;BME280;7137;51.436;6.544;2023-05-03T13:39:14;102162.63;;;16.65;41.03
14117;BME280;7137;51.436;6.544;2023-05-03T13:42:16;102154.56;;;16.96;39.29
14117;BME280;7137;51.436;6.544;2023-05-03T13:45:17;102153.28;;;17.08;40.06
14117;BME280;7137;51.436;6.544;2023-05-03T13:48:19;102157.31;;;16.67;40.68
14117;BME280;7137;51.436;6.544;2023-05-03T13:51:21;102155.91;;;16.83;41.29
14117;BME280;7137;51.436;6.544;2023-05-03T13:54:24;102134.84;;;16.81;39.52
14117;BME280;7137;51.436;6.544;2023-05-03T13:57:26;102138.22;;;16.58;40.64
14117;BME280;7137;51.436;6.544;2023-05-03T14:00:28;102136.78;;;16.50;39.85
14117;BME280;7137;51.436;6.544;2023-05-03T14:03:30;102126.16;;;16.51;39.58
14117;BME280;7137;51.436;6.544;2023-05-03T14:06:32;102124.13;;;16.86;40.74
14117;BME280;7137;51.436;6.544;2023-05-03T14:09:35;102123.50;;;17.04;39.09
14117;BME280;7137;51.436;6.544;2023-05-03T14:12:38;102123.69;;;16.98;38.61
14117;BME280;7137;51.436;6.544;2023-05-03T14:15:41;102108.88;;;16.69;39.25
14117;BME280;7137;51.436;6.544;2023-05-03T14:18:43;102109.94;;;17.13;39.33
14117;BME280;7137;51.436;6.544;2023-05-03T14:21:46;102105.13;;;17.25;37.36
14117;BME280;7137;51.436;6.544;2023-05-03T14:24:50;102108.31;;;17.34;36.74
14117;BME280;7137;51.436;6.544;2023-05-03T14:27:52;102095.75;;;17.16;35.03
14117;BME280;7137;51.436;6.544;2023-05-03T14:30:53;102097.50;;;17.40;37.33
14117;BME280;7137;51.436;6.544;2023-05-03T14:33:56;102090.31;;;17.20;37.25
14117;BME280;7137;51.436;6.544;2023-05-03T14:36:58;102089.09;;;17.06;37.35
14117;BME280;7137;51.436;6.544;2023-05-03T14:40:01;102088.56;;;16.96;37.12
14117;BME280;7137;51.436;6.544;2023-05-03T14:43:04;102089.41;;;16.72;37.54
14117;BME280;7137;51.436;6.544;2023-05-03T14:46:07;102083.63;;;16.60;37.37
14117;BME280;7137;51.436;6.544;2023-05-03T14:49:08;102085.97;;;16.95;38.41
14117;BME280;7137;51.436;6.544;2023-05-03T14:52:10;102075.44;;;16.95;36.59
14117;BME280;7137;51.436;6.544;2023-05-03T14:55:13;102069.34;;;16.92;38.55
14117;BME280;7137;51.436;6.544;2023-05-03T14:58:15;102076.16;;;16.98;39.19
14117;BME280;7137;51.436;6.544;2023-05-03T15:01:18;102069.25;;;17.19;39.52
14117;BME280;7137;51.436;6.544;2023-05-03T15:04:20;102069.69;;;17.54;36.56
14117;BME280;7137;51.436;6.544;2023-05-03T15:07:22;102076.19;;;17.21;37.41
14117;BME280;7137;51.436;6.544;2023-05-03T15:10:25;102083.72;;;17.32;38.25
14117;BME280;7137;51.436;6.544;2023-05-03T15:13:27;102082.56;;;17.39;37.59
14117;BME280;7137;51.436;6.544;2023-05-03T15:16:28;102083.53;;;17.60;36.95
14117;BME280;7137;51.436;6.544;2023-05-03T15:19:30;102067.97;;;17.52;36.92
14117;BME280;7137;51.436;6.544;2023-05-03T15:22:32;102072.03;;;17.61;36.79
14117;BME280;7137;51.436;6.544;2023-05-03T15:25:34;102065.78;;;17.40;36.77
14117;BME280;7137;51.436;6.544;2023-05-03T15:28:36;102051.69;;;17.18;38.16
14117;BME280;7137;51.436;6.544;2023-05-03T15:31:37;102065.06;;;17.37;38.52
14117;BME280;7137;51.436;6.544;2023-05-03T15:34:39;102049.41;;;17.54;38.35
14117;BME280;7137;51.436;6.544;2023-05-03T15:37:41;102047.75;;;17.51;37.42
14117;BME280;7137;51.436;6.544;2023-05-03T15:40:43;102056.41;;;17.55;36.59
14117;BME280;7137;51.436;6.544;2023-05-03T15:43:45;102050.13;;;17.81;36.14
14117;BME280;7137;51.436;6.544;2023-05-03T15:46:46;102044.53;;;17.89;36.13
14117;BME280;7137;51.436;6.544;2023-05-03T15:49:48;102042.06;;;17.84;36.71
14117;BME280;7137;51.436;6.544;2023-05-03T15:52:50;102037.97;;;17.32;36.94
14117;BME280;7137;51.436;6.544;2023-05-03T15:55:53;102036.47;;;17.25;36.81
14117;BME280;7137;51.436;6.544;2023-05-03T15:58:57;102036.19;;;17.32;37.99
14117;BME280;7137;51.436;6.544;2023-05-03T16:01:58;102041.28;;;17.37;37.34
14117;BME280;7137;51.436;6.544;2023-05-03T16:05:00;102020.28;;;17.56;37.76
14117;BME280;7137;51.436;6.544;2023-05-03T16:08:03;102037.78;;;17.36;37.25
14117;BME280;7137;51.436;6.544;2023-05-03T16:11:07;102033.19;;;17.18;37.23
14117;BME280;7137;51.436;6.544;2023-05-03T16:14:08;102039.91;;;17.27;36.92